sensor_id;sensor_type;location;lat;lon;timestamp;P1;P2;P0
63969;PMS5003;50156;37.772;-122.432;2022-08-21T00:02:13;7;7;
63969;PMS5003;50156;37.772;-122.432;2022-08-21T00:04:42;5;5;
63969;PMS5003;50156;37.772;-122.432;2022-08-21T00:07:11;6;6;
63969;PMS5003;50156;37.772;-122.432;2022-08-21T00:09:40;8;6;
63969;PMS5003;50156;37.772;-122.432;2022-08-21T00:12:09;8;5;
63969;PMS5003;50156;37.772;-122.432;2022-08-21T00:14:37;6;6;
63969;PMS5003;50156;37.772;-122.432;2022-08-21T00:17:07;5;5;
63969;PMS5003;50156;37.772;-122.432;2022-08-21T00:19:35;7;7;
63969;PMS5003;50156;37.772;-122.432;2022-08-21T00:22:04;11;11;
63969;PMS5003;50156;37.772;-122.432;2022-08-21T00:24:32;8;6;
63969;PMS5003;50156;37.772;-122.432;2022-08-21T00:27:01;12;10;
63969;PMS5003;50156;37.772;-122.432;2022-08-21T00:29:30;9;9;
63969;PMS5003;50156;37.772;-122.432;2022-08-21T00:31:58;7;6;
63969;PMS5003;50156;37.772;-122.432;2022-08-21T00:34:26;7;7;
63969;PMS5003;50156;37.772;-122.432;2022-08-21T00:36:54;7;7;
63969;PMS5003;50156;37.772;-122.432;2022-08-21T00:39:23;8;8;
63969;PMS5003;50156;37.772;-122.432;2022-08-21T00:41:51;8;8;
63969;PMS5003;50156;37.772;-122.432;2022-08-21T00:44:20;7;6;
63969;PMS5003;50156;37.772;-122.432;2022-08-21T00:46:49;7;6;
63969;PMS5003;50156;37.772;-122.432;2022-08-21T00:49:17;7;7;
63969;PMS5003;50156;37.772;-122.432;2022-08-21T00:51:47;7;6;
63969;PMS5003;50156;37.772;-122.432;2022-08-21T00:54:18;12;8;
63969;PMS5003;50156;37.772;-122.432;2022-08-21T00:56:51;5;5;
63969;PMS5003;50156;37.772;-122.432;2022-08-21T00:59:22;10;9;
63969;PMS5003;50156;37.772;-122.432;2022-08-21T01:01:53;7;7;
63969;PMS5003;50156;37.772;-122.432;2022-08-21T01:04:22;9;9;
63969;PMS5003;50156;37.772;-122.432;2022-08-21T01:06:51;10;10;
63969;PMS5003;50156;37.772;-122.432;2022-08-21T01:09:20;13;11;
63969;PMS5003;50156;37.772;-122.432;2022-08-21T01:11:49;8;7;
63969;PMS5003;50156;37.772;-122.432;2022-08-21T01:14:18;5;5;
63969;PMS5003;50156;37.772;-122.432;2022-08-21T01:16:47;10;7;
63969;PMS5003;50156;37.772;-122.432;2022-08-21T01:19:18;7;7;
63969;PMS5003;50156;37.772;-122.432;2022-08-21T01:21:48;8;6;
63969;PMS5003;50156;37.772;-122.432;2022-08-21T01:24:17;5;4;
63969;PMS5003;50156;37.772;-122.432;2022-08-21T01:26:46;8;8;
63969;PMS5003;50156;37.772;-122.432;2022-08-21T01:29:16;6;6;
63969;PMS5003;50156;37.772;-122.432;2022-08-21T01:31:56;6;6;
63969;PMS5003;50156;37.772;-122.432;2022-08-21T01:34:25;9;7;
63969;PMS5003;50156;37.772;-122.432;2022-08-21T01:36:54;9;7;
63969;PMS5003;50156;37.772;-122.432;2022-08-21T01:39:22;7;7;
63969;PMS5003;50156;37.772;-122.432;2022-08-21T01:41:51;8;7;
63969;PMS5003;50156;37.772;-122.432;2022-08-21T01:44:20;6;6;
63969;PMS5003;50156;37.772;-122.432;2022-08-21T01:46:49;7;7;
63969;PMS5003;50156;37.772;-122.432;2022-08-21T01:49:19;7;6;
63969;PMS5003;50156;37.772;-122.432;2022-08-21T01:51:47;7;7;
63969;PMS5003;50156;37.772;-122.432;2022-08-21T01:54:16;7;7;
63969;PMS5003;50156;37.772;-122.432;2022-08-21T01:56:46;9;8;
63969;PMS5003;50156;37.772;-122.432;2022-08-21T01:59:17;9;9;
63969;PMS5003;50156;37.772;-122.432;2022-08-21T02:01:47;12;11;
63969;PMS5003;50156;37.772;-122.432;2022-08-21T02:04:15;11;11;
63969;PMS5003;50156;37.772;-122.432;2022-08-21T02:06:44;10;10;
63969;PMS5003;50156;37.772;-122.432;2022-08-21T02:09:13;8;8;
63969;PMS5003;50156;37.772;-122.432;2022-08-21T02:11:42;9;9;
63969;PMS5003;50156;37.772;-122.432;2022-08-21T02:14:12;9;9;
63969;PMS5003;50156;37.772;-122.432;2022-08-21T02:16:42;10;10;
63969;PMS5003;50156;37.772;-122.432;2022-08-21T02:19:12;15;12;
63969;PMS5003;50156;37.772;-122.432;2022-08-21T02:21:42;13;11;
63969;PMS5003;50156;37.772;-122.432;2022-08-21T02:24:11;9;9;
63969;PMS5003;50156;37.772;-122.432;2022-08-21T02:26:40;14;13;
63969;PMS5003;50156;37.772;-122.432;2022-08-21T02:29:09;19;16;
63969;PMS5003;50156;37.772;-122.432;2022-08-21T02:31:37;11;11;
63969;PMS5003;50156;37.772;-122.432;2022-08-21T02:34:06;15;15;
63969;PMS5003;50156;37.772;-122.432;2022-08-21T02:36:35;15;11;
63969;PMS5003;50156;37.772;-122.432;2022-08-21T02:39:03;11;11;
63969;PMS5003;50156;37.772;-122.432;2022-08-21T02:41:32;13;12;
63969;PMS5003;50156;37.772;-122.432;2022-08-21T02:44:01;10;10;
63969;PMS5003;50156;37.772;-122.432;2022-08-21T02:46:29;8;7;
63969;PMS5003;50156;37.772;-122.432;2022-08-21T02:48:58;15;11;
63969;PMS5003;50156;37.772;-122.432;2022-08-21T02:51:26;14;14;
63969;PMS5003;50156;37.772;-122.432;2022-08-21T02:53:55;12;11;
63969;PMS5003;50156;37.772;-122.432;2022-08-21T02:56:23;12;11;
63969;PMS5003;50156;37.772;-122.432;2022-08-21T02:58:52;12;11;
63969;PMS5003;50156;37.772;-122.432;2022-08-21T03:01:21;12;11;
63969;PMS5003;50156;37.772;-122.432;2022-08-21T03:03:49;9;9;
63969;PMS5003;50156;37.772;-122.432;2022-08-21T03:06:19;12;11;
63969;PMS5003;50156;37.772;-122.432;2022-08-21T03:08:49;14;12;
63969;PMS5003;50156;37.772;-122.432;2022-08-21T03:11:17;10;9;
63969;PMS5003;50156;37.772;-122.432;2022-08-21T03:13:46;12;10;
63969;PMS5003;50156;37.772;-122.432;2022-08-21T03:16:14;13;11;
63969;PMS5003;50156;37.772;-122.432;2022-08-21T03:18:43;15;12;
63969;PMS5003;50156;37.772;-122.432;2022-08-21T03:21:11;10;10;
63969;PMS5003;50156;37.772;-122.432;2022-08-21T03:23:40;9;9;
63969;PMS5003;50156;37.772;-122.432;2022-08-21T03:26:08;11;11;
63969;PMS5003;50156;37.772;-122.432;2022-08-21T03:28:38;10;9;
63969;PMS5003;50156;37.772;-122.432;2022-08-21T03:31:07;12;12;
63969;PMS5003;50156;37.772;-122.432;2022-08-21T03:33:35;13;11;
63969;PMS5003;50156;37.772;-122.432;2022-08-21T03:36:05;9;9;
63969;PMS5003;50156;37.772;-122.432;2022-08-21T03:38:36;12;10;
63969;PMS5003;50156;37.772;-122.432;2022-08-21T03:41:05;10;10;
63969;PMS5003;50156;37.772;-122.432;2022-08-21T03:43:35;11;10;
63969;PMS5003;50156;37.772;-122.432;2022-08-21T03:46:04;10;10;
63969;PMS5003;50156;37.772;-122.432;2022-08-21T03:48:34;14;12;
63969;PMS5003;50156;37.772;-122.432;2022-08-21T03:51:04;17;14;
63969;PMS5003;50156;37.772;-122.432;2022-08-21T03:53:33;21;17;
63969;PMS5003;50156;37.772;-122.432;2022-08-21T03:56:04;16;15;
63969;PMS5003;50156;37.772;-122.432;2022-08-21T03:58:33;12;12;
63969;PMS5003;50156;37.772;-122.432;2022-08-21T04:01:06;18;17;
63969;PMS5003;50156;37.772;-122.432;2022-08-21T04:03:37;16;11;
63969;PMS5003;50156;37.772;-122.432;2022-08-21T04:06:07;17;12;
63969;PMS5003;50156;37.772;-122.432;2022-08-21T04:08:35;17;14;
63969;PMS5003;50156;37.772;-122.432;2022-08-21T04:11:04;14;13;
63969;PMS5003;50156;37.772;-122.432;2022-08-21T04:13:35;16;13;
63969;PMS5003;50156;37.772;-122.432;2022-08-21T04:16:04;11;11;
63969;PMS5003;50156;37.772;-122.432;2022-08-21T04:18:34;11;11;
63969;PMS5003;50156;37.772;-122.432;2022-08-21T04:21:03;14;13;
63969;PMS5003;50156;37.772;-122.432;2022-08-21T04:23:32;12;12;
63969;PMS5003;50156;37.772;-122.432;2022-08-21T04:26:01;12;12;
63969;PMS5003;50156;37.772;-122.432;2022-08-21T04:28:30;11;10;
63969;PMS5003;50156;37.772;-122.432;2022-08-21T04:30:58;17;14;
63969;PMS5003;50156;37.772;-122.432;2022-08-21T04:33:26;14;11;
63969;PMS5003;50156;37.772;-122.432;2022-08-21T04:35:55;20;16;
63969;PMS5003;50156;37.772;-122.432;2022-08-21T04:38:23;12;12;
63969;PMS5003;50156;37.772;-122.432;2022-08-21T04:40:51;18;15;
63969;PMS5003;50156;37.772;-122.432;2022-08-21T04:43:21;15;12;
63969;PMS5003;50156;37.772;-122.432;2022-08-21T04:45:50;16;16;
63969;PMS5003;50156;37.772;-122.432;2022-08-21T04:48:20;16;14;
63969;PMS5003;50156;37.772;-122.432;2022-08-21T04:50:50;10;10;
63969;PMS5003;50156;37.772;-122.432;2022-08-21T04:53:24;14;12;
63969;PMS5003;50156;37.772;-122.432;2022-08-21T04:55:57;13;9;
63969;PMS5003;50156;37.772;-122.432;2022-08-21T04:58:31;13;10;
63969;PMS5003;50156;37.772;-122.432;2022-08-21T05:01:00;15;14;
63969;PMS5003;50156;37.772;-122.432;2022-08-21T05:03:32;12;12;
63969;PMS5003;50156;37.772;-122.432;2022-08-21T05:06:04;13;12;
63969;PMS5003;50156;37.772;-122.432;2022-08-21T05:08:34;11;10;
63969;PMS5003;50156;37.772;-122.432;2022-08-21T05:11:03;11;11;
63969;PMS5003;50156;37.772;-122.432;2022-08-21T05:13:34;16;12;
63969;PMS5003;50156;37.772;-122.432;2022-08-21T05:16:03;11;11;
63969;PMS5003;50156;37.772;-122.432;2022-08-21T05:18:32;10;8;
63969;PMS5003;50156;37.772;-122.432;2022-08-21T05:21:02;13;11;
63969;PMS5003;50156;37.772;-122.432;2022-08-21T05:23:30;12;11;
63969;PMS5003;50156;37.772;-122.432;2022-08-21T05:25:59;8;8;
63969;PMS5003;50156;37.772;-122.432;2022-08-21T05:28:27;11;10;
63969;PMS5003;50156;37.772;-122.432;2022-08-21T05:30:55;11;10;
63969;PMS5003;50156;37.772;-122.432;2022-08-21T05:33:25;12;11;
63969;PMS5003;50156;37.772;-122.432;2022-08-21T05:35:54;12;11;
63969;PMS5003;50156;37.772;-122.432;2022-08-21T05:38:22;11;11;
63969;PMS5003;50156;37.772;-122.432;2022-08-21T05:40:52;14;13;
63969;PMS5003;50156;37.772;-122.432;2022-08-21T05:43:21;11;11;
63969;PMS5003;50156;37.772;-122.432;2022-08-21T05:45:49;14;13;
63969;PMS5003;50156;37.772;-122.432;2022-08-21T05:48:19;15;12;
63969;PMS5003;50156;37.772;-122.432;2022-08-21T05:50:50;12;11;
63969;PMS5003;50156;37.772;-122.432;2022-08-21T05:53:20;17;13;
63969;PMS5003;50156;37.772;-122.432;2022-08-21T05:55:49;12;10;
63969;PMS5003;50156;37.772;-122.432;2022-08-21T05:58:19;15;12;
63969;PMS5003;50156;37.772;-122.432;2022-08-21T06:00:48;12;12;
63969;PMS5003;50156;37.772;-122.432;2022-08-21T06:03:19;17;14;
63969;PMS5003;50156;37.772;-122.432;2022-08-21T06:05:49;14;14;
63969;PMS5003;50156;37.772;-122.432;2022-08-21T06:08:18;13;12;
63969;PMS5003;50156;37.772;-122.432;2022-08-21T06:10:48;15;13;
63969;PMS5003;50156;37.772;-122.432;2022-08-21T06:13:18;9;8;
63969;PMS5003;50156;37.772;-122.432;2022-08-21T06:15:48;19;18;
63969;PMS5003;50156;37.772;-122.432;2022-08-21T06:18:26;14;11;
63969;PMS5003;50156;37.772;-122.432;2022-08-21T06:20:55;9;9;
63969;PMS5003;50156;37.772;-122.432;2022-08-21T06:23:24;13;11;
63969;PMS5003;50156;37.772;-122.432;2022-08-21T06:25:52;11;10;
63969;PMS5003;50156;37.772;-122.432;2022-08-21T06:28:20;11;10;
63969;PMS5003;50156;37.772;-122.432;2022-08-21T06:30:49;16;14;
63969;PMS5003;50156;37.772;-122.432;2022-08-21T06:33:18;13;10;
63969;PMS5003;50156;37.772;-122.432;2022-08-21T06:35:47;11;10;
63969;PMS5003;50156;37.772;-122.432;2022-08-21T06:38:15;11;10;
63969;PMS5003;50156;37.772;-122.432;2022-08-21T06:40:44;10;10;
63969;PMS5003;50156;37.772;-122.432;2022-08-21T06:43:13;10;9;
63969;PMS5003;50156;37.772;-122.432;2022-08-21T06:45:44;7;7;
63969;PMS5003;50156;37.772;-122.432;2022-08-21T06:48:12;10;10;
63969;PMS5003;50156;37.772;-122.432;2022-08-21T06:50:41;6;6;
63969;PMS5003;50156;37.772;-122.432;2022-08-21T06:53:10;12;12;
63969;PMS5003;50156;37.772;-122.432;2022-08-21T06:55:40;9;9;
63969;PMS5003;50156;37.772;-122.432;2022-08-21T06:58:09;9;9;
63969;PMS5003;50156;37.772;-122.432;2022-08-21T07:00:39;12;12;
63969;PMS5003;50156;37.772;-122.432;2022-08-21T07:03:16;10;9;
63969;PMS5003;50156;37.772;-122.432;2022-08-21T07:05:45;7;7;
63969;PMS5003;50156;37.772;-122.432;2022-08-21T07:08:14;14;11;
63969;PMS5003;50156;37.772;-122.432;2022-08-21T07:10:43;8;6;
63969;PMS5003;50156;37.772;-122.432;2022-08-21T07:13:12;23;17;
63969;PMS5003;50156;37.772;-122.432;2022-08-21T07:15:41;9;9;
63969;PMS5003;50156;37.772;-122.432;2022-08-21T07:18:11;9;9;
63969;PMS5003;50156;37.772;-122.432;2022-08-21T07:20:39;9;9;
63969;PMS5003;50156;37.772;-122.432;2022-08-21T07:23:10;10;10;
63969;PMS5003;50156;37.772;-122.432;2022-08-21T07:25:45;13;12;
63969;PMS5003;50156;37.772;-122.432;2022-08-21T07:28:13;8;8;
63969;PMS5003;50156;37.772;-122.432;2022-08-21T07:30:42;12;11;
63969;PMS5003;50156;37.772;-122.432;2022-08-21T07:33:11;11;9;
63969;PMS5003;50156;37.772;-122.432;2022-08-21T07:35:39;13;10;
63969;PMS5003;50156;37.772;-122.432;2022-08-21T07:38:08;9;8;
63969;PMS5003;50156;37.772;-122.432;2022-08-21T07:40:36;9;8;
63969;PMS5003;50156;37.772;-122.432;2022-08-21T07:43:05;8;8;
63969;PMS5003;50156;37.772;-122.432;2022-08-21T07:45:34;9;9;
63969;PMS5003;50156;37.772;-122.432;2022-08-21T07:48:03;9;7;
63969;PMS5003;50156;37.772;-122.432;2022-08-21T07:50:32;7;7;
63969;PMS5003;50156;37.772;-122.432;2022-08-21T07:53:01;11;7;
63969;PMS5003;50156;37.772;-122.432;2022-08-21T07:55:29;7;7;
63969;PMS5003;50156;37.772;-122.432;2022-08-21T07:57:58;15;10;
63969;PMS5003;50156;37.772;-122.432;2022-08-21T08:00:27;7;7;
63969;PMS5003;50156;37.772;-122.432;2022-08-21T08:02:56;9;9;
63969;PMS5003;50156;37.772;-122.432;2022-08-21T08:05:26;9;6;
63969;PMS5003;50156;37.772;-122.432;2022-08-21T08:07:57;11;11;
63969;PMS5003;50156;37.772;-122.432;2022-08-21T08:10:26;8;6;
63969;PMS5003;50156;37.772;-122.432;2022-08-21T08:12:55;9;7;
63969;PMS5003;50156;37.772;-122.432;2022-08-21T08:15:24;9;8;
63969;PMS5003;50156;37.772;-122.432;2022-08-21T08:17:54;7;6;
63969;PMS5003;50156;37.772;-122.432;2022-08-21T08:20:24;9;7;
63969;PMS5003;50156;37.772;-122.432;2022-08-21T08:22:53;6;6;
63969;PMS5003;50156;37.772;-122.432;2022-08-21T08:25:23;10;8;
63969;PMS5003;50156;37.772;-122.432;2022-08-21T08:27:54;7;7;
63969;PMS5003;50156;37.772;-122.432;2022-08-21T08:30:22;9;9;
63969;PMS5003;50156;37.772;-122.432;2022-08-21T08:32:51;8;5;
63969;PMS5003;50156;37.772;-122.432;2022-08-21T08:35:19;6;6;
63969;PMS5003;50156;37.772;-122.432;2022-08-21T08:37:48;8;6;
63969;PMS5003;50156;37.772;-122.432;2022-08-21T08:40:20;10;8;
63969;PMS5003;50156;37.772;-122.432;2022-08-21T08:42:55;7;7;
63969;PMS5003;50156;37.772;-122.432;2022-08-21T08:45:23;9;7;
63969;PMS5003;50156;37.772;-122.432;2022-08-21T08:47:53;7;7;
63969;PMS5003;50156;37.772;-122.432;2022-08-21T08:50:28;7;5;
63969;PMS5003;50156;37.772;-122.432;2022-08-21T08:53:06;4;4;
63969;PMS5003;50156;37.772;-122.432;2022-08-21T08:55:40;6;6;
63969;PMS5003;50156;37.772;-122.432;2022-08-21T08:58:12;12;9;
63969;PMS5003;50156;37.772;-122.432;2022-08-21T09:00:44;7;5;
63969;PMS5003;50156;37.772;-122.432;2022-08-21T09:03:16;9;7;
63969;PMS5003;50156;37.772;-122.432;2022-08-21T09:05:46;8;8;
63969;PMS5003;50156;37.772;-122.432;2022-08-21T09:08:28;5;5;
63969;PMS5003;50156;37.772;-122.432;2022-08-21T09:11:11;7;7;
63969;PMS5003;50156;37.772;-122.432;2022-08-21T09:13:50;7;6;
63969;PMS5003;50156;37.772;-122.432;2022-08-21T09:16:30;9;7;
63969;PMS5003;50156;37.772;-122.432;2022-08-21T09:19:11;11;9;
63969;PMS5003;50156;37.772;-122.432;2022-08-21T09:21:57;11;9;
63969;PMS5003;50156;37.772;-122.432;2022-08-21T09:24:36;5;5;
63969;PMS5003;50156;37.772;-122.432;2022-08-21T09:27:15;6;4;
63969;PMS5003;50156;37.772;-122.432;2022-08-21T09:29:45;6;6;
63969;PMS5003;50156;37.772;-122.432;2022-08-21T09:32:17;4;4;
63969;PMS5003;50156;37.772;-122.432;2022-08-21T09:34:58;9;7;
63969;PMS5003;50156;37.772;-122.432;2022-08-21T09:37:31;7;6;
63969;PMS5003;50156;37.772;-122.432;2022-08-21T09:40:02;6;6;
63969;PMS5003;50156;37.772;-122.432;2022-08-21T09:42:53;5;5;
63969;PMS5003;50156;37.772;-122.432;2022-08-21T09:45:23;6;6;
63969;PMS5003;50156;37.772;-122.432;2022-08-21T09:47:52;3;3;
63969;PMS5003;50156;37.772;-122.432;2022-08-21T09:50:22;5;5;
63969;PMS5003;50156;37.772;-122.432;2022-08-21T09:52:54;5;5;
63969;PMS5003;50156;37.772;-122.432;2022-08-21T09:55:29;7;6;
63969;PMS5003;50156;37.772;-122.432;2022-08-21T09:58:01;8;5;
63969;PMS5003;50156;37.772;-122.432;2022-08-21T10:00:31;5;5;
63969;PMS5003;50156;37.772;-122.432;2022-08-21T10:03:09;7;5;
63969;PMS5003;50156;37.772;-122.432;2022-08-21T10:05:49;6;6;
63969;PMS5003;50156;37.772;-122.432;2022-08-21T10:08:22;13;13;
63969;PMS5003;50156;37.772;-122.432;2022-08-21T10:10:54;11;9;
63969;PMS5003;50156;37.772;-122.432;2022-08-21T10:13:28;6;6;
63969;PMS5003;50156;37.772;-122.432;2022-08-21T10:16:13;7;7;
63969;PMS5003;50156;37.772;-122.432;2022-08-21T10:18:55;9;9;
63969;PMS5003;50156;37.772;-122.432;2022-08-21T10:21:32;7;7;
63969;PMS5003;50156;37.772;-122.432;2022-08-21T10:24:07;9;5;
63969;PMS5003;50156;37.772;-122.432;2022-08-21T10:26:45;7;7;
63969;PMS5003;50156;37.772;-122.432;2022-08-21T10:29:37;11;9;
63969;PMS5003;50156;37.772;-122.432;2022-08-21T10:32:15;8;7;
63969;PMS5003;50156;37.772;-122.432;2022-08-21T10:34:57;7;7;
63969;PMS5003;50156;37.772;-122.432;2022-08-21T10:37:37;9;7;
63969;PMS5003;50156;37.772;-122.432;2022-08-21T10:40:17;7;6;
63969;PMS5003;50156;37.772;-122.432;2022-08-21T10:42:57;9;8;
63969;PMS5003;50156;37.772;-122.432;2022-08-21T10:45:41;11;8;
63969;PMS5003;50156;37.772;-122.432;2022-08-21T10:48:22;13;11;
63969;PMS5003;50156;37.772;-122.432;2022-08-21T10:51:04;12;12;
63969;PMS5003;50156;37.772;-122.432;2022-08-21T10:53:44;8;8;
63969;PMS5003;50156;37.772;-122.432;2022-08-21T10:56:19;7;7;
63969;PMS5003;50156;37.772;-122.432;2022-08-21T10:58:55;14;13;
63969;PMS5003;50156;37.772;-122.432;2022-08-21T11:01:33;14;11;
63969;PMS5003;50156;37.772;-122.432;2022-08-21T11:04:12;12;11;
63969;PMS5003;50156;37.772;-122.432;2022-08-21T11:06:46;13;11;
63969;PMS5003;50156;37.772;-122.432;2022-08-21T11:09:20;12;10;
63969;PMS5003;50156;37.772;-122.432;2022-08-21T11:11:52;11;11;
63969;PMS5003;50156;37.772;-122.432;2022-08-21T11:14:29;11;10;
63969;PMS5003;50156;37.772;-122.432;2022-08-21T11:17:07;17;15;
63969;PMS5003;50156;37.772;-122.432;2022-08-21T11:19:40;13;11;
63969;PMS5003;50156;37.772;-122.432;2022-08-21T11:22:16;11;11;
63969;PMS5003;50156;37.772;-122.432;2022-08-21T11:24:54;13;13;
63969;PMS5003;50156;37.772;-122.432;2022-08-21T11:27:30;14;11;
63969;PMS5003;50156;37.772;-122.432;2022-08-21T11:30:06;12;11;
63969;PMS5003;50156;37.772;-122.432;2022-08-21T11:32:43;11;11;
63969;PMS5003;50156;37.772;-122.432;2022-08-21T11:35:27;12;9;
63969;PMS5003;50156;37.772;-122.432;2022-08-21T11:38:05;16;12;
63969;PMS5003;50156;37.772;-122.432;2022-08-21T11:40:50;19;14;
63969;PMS5003;50156;37.772;-122.432;2022-08-21T11:43:32;11;10;
63969;PMS5003;50156;37.772;-122.432;2022-08-21T11:46:10;15;10;
63969;PMS5003;50156;37.772;-122.432;2022-08-21T11:48:56;9;9;
63969;PMS5003;50156;37.772;-122.432;2022-08-21T11:51:36;11;11;
63969;PMS5003;50156;37.772;-122.432;2022-08-21T11:54:11;14;12;
63969;PMS5003;50156;37.772;-122.432;2022-08-21T11:56:52;11;10;
63969;PMS5003;50156;37.772;-122.432;2022-08-21T11:59:28;9;8;
63969;PMS5003;50156;37.772;-122.432;2022-08-21T12:02:05;16;13;
63969;PMS5003;50156;37.772;-122.432;2022-08-21T12:04:43;12;10;
63969;PMS5003;50156;37.772;-122.432;2022-08-21T12:07:16;15;12;
63969;PMS5003;50156;37.772;-122.432;2022-08-21T12:09:58;15;12;
63969;PMS5003;50156;37.772;-122.432;2022-08-21T12:12:28;10;9;
63969;PMS5003;50156;37.772;-122.432;2022-08-21T12:15:12;19;18;
63969;PMS5003;50156;37.772;-122.432;2022-08-21T12:17:54;16;12;
63969;PMS5003;50156;37.772;-122.432;2022-08-21T12:20:56;9;9;
63969;PMS5003;50156;37.772;-122.432;2022-08-21T12:23:31;12;12;
63969;PMS5003;50156;37.772;-122.432;2022-08-21T12:26:17;13;9;
63969;PMS5003;50156;37.772;-122.432;2022-08-21T12:28:50;12;12;
63969;PMS5003;50156;37.772;-122.432;2022-08-21T12:31:30;14;10;
63969;PMS5003;50156;37.772;-122.432;2022-08-21T12:34:01;13;11;
63969;PMS5003;50156;37.772;-122.432;2022-08-21T12:36:41;11;9;
63969;PMS5003;50156;37.772;-122.432;2022-08-21T12:39:14;9;9;
63969;PMS5003;50156;37.772;-122.432;2022-08-21T12:41:47;34;33;
63969;PMS5003;50156;37.772;-122.432;2022-08-21T12:44:21;22;20;
63969;PMS5003;50156;37.772;-122.432;2022-08-21T12:46:56;14;11;
63969;PMS5003;50156;37.772;-122.432;2022-08-21T12:49:30;14;13;
63969;PMS5003;50156;37.772;-122.432;2022-08-21T12:52:06;12;12;
63969;PMS5003;50156;37.772;-122.432;2022-08-21T12:54:41;11;9;
63969;PMS5003;50156;37.772;-122.432;2022-08-21T12:57:18;11;10;
63969;PMS5003;50156;37.772;-122.432;2022-08-21T12:59:53;7;7;
63969;PMS5003;50156;37.772;-122.432;2022-08-21T13:02:25;5;4;
63969;PMS5003;50156;37.772;-122.432;2022-08-21T13:04:58;7;7;
63969;PMS5003;50156;37.772;-122.432;2022-08-21T13:07:32;8;6;
63969;PMS5003;50156;37.772;-122.432;2022-08-21T13:10:04;8;7;
63969;PMS5003;50156;37.772;-122.432;2022-08-21T13:12:41;8;6;
63969;PMS5003;50156;37.772;-122.432;2022-08-21T13:15:09;7;7;
63969;PMS5003;50156;37.772;-122.432;2022-08-21T13:17:39;9;7;
63969;PMS5003;50156;37.772;-122.432;2022-08-21T13:20:19;8;8;
63969;PMS5003;50156;37.772;-122.432;2022-08-21T13:22:49;8;7;
63969;PMS5003;50156;37.772;-122.432;2022-08-21T13:25:19;9;9;
63969;PMS5003;50156;37.772;-122.432;2022-08-21T13:27:57;10;10;
63969;PMS5003;50156;37.772;-122.432;2022-08-21T13:30:28;9;7;
63969;PMS5003;50156;37.772;-122.432;2022-08-21T13:32:57;7;7;
63969;PMS5003;50156;37.772;-122.432;2022-08-21T13:35:30;10;7;
63969;PMS5003;50156;37.772;-122.432;2022-08-21T13:38:12;7;7;
63969;PMS5003;50156;37.772;-122.432;2022-08-21T13:40:45;9;6;
63969;PMS5003;50156;37.772;-122.432;2022-08-21T13:43:17;5;5;
63969;PMS5003;50156;37.772;-122.432;2022-08-21T13:45:50;6;6;
63969;PMS5003;50156;37.772;-122.432;2022-08-21T13:48:20;9;4;
63969;PMS5003;50156;37.772;-122.432;2022-08-21T13:50:51;4;4;
63969;PMS5003;50156;37.772;-122.432;2022-08-21T13:53:22;5;5;
63969;PMS5003;50156;37.772;-122.432;2022-08-21T13:55:57;4;4;
63969;PMS5003;50156;37.772;-122.432;2022-08-21T13:58:27;4;4;
63969;PMS5003;50156;37.772;-122.432;2022-08-21T14:00:58;3;3;
63969;PMS5003;50156;37.772;-122.432;2022-08-21T14:03:31;3;2;
63969;PMS5003;50156;37.772;-122.432;2022-08-21T14:06:03;4;4;
63969;PMS5003;50156;37.772;-122.432;2022-08-21T14:08:39;4;4;
63969;PMS5003;50156;37.772;-122.432;2022-08-21T14:11:10;2;2;
63969;PMS5003;50156;37.772;-122.432;2022-08-21T14:13:41;3;3;
63969;PMS5003;50156;37.772;-122.432;2022-08-21T14:16:13;3;3;
63969;PMS5003;50156;37.772;-122.432;2022-08-21T14:18:46;5;5;
63969;PMS5003;50156;37.772;-122.432;2022-08-21T14:21:37;6;4;
63969;PMS5003;50156;37.772;-122.432;2022-08-21T14:24:11;8;8;
63969;PMS5003;50156;37.772;-122.432;2022-08-21T14:26:45;11;10;
63969;PMS5003;50156;37.772;-122.432;2022-08-21T14:29:18;5;5;
63969;PMS5003;50156;37.772;-122.432;2022-08-21T14:31:50;5;5;
63969;PMS5003;50156;37.772;-122.432;2022-08-21T14:34:21;6;4;
63969;PMS5003;50156;37.772;-122.432;2022-08-21T14:36:51;5;5;
63969;PMS5003;50156;37.772;-122.432;2022-08-21T14:39:21;2;2;
63969;PMS5003;50156;37.772;-122.432;2022-08-21T14:41:49;4;4;
63969;PMS5003;50156;37.772;-122.432;2022-08-21T14:44:19;2;2;
63969;PMS5003;50156;37.772;-122.432;2022-08-21T14:46:48;6;4;
63969;PMS5003;50156;37.772;-122.432;2022-08-21T14:49:17;3;3;
63969;PMS5003;50156;37.772;-122.432;2022-08-21T14:51:46;2;2;
63969;PMS5003;50156;37.772;-122.432;2022-08-21T14:54:14;5;5;
63969;PMS5003;50156;37.772;-122.432;2022-08-21T14:56:43;4;4;
63969;PMS5003;50156;37.772;-122.432;2022-08-21T14:59:11;4;4;
63969;PMS5003;50156;37.772;-122.432;2022-08-21T15:01:39;3;3;
63969;PMS5003;50156;37.772;-122.432;2022-08-21T15:04:08;3;3;
63969;PMS5003;50156;37.772;-122.432;2022-08-21T15:06:37;4;4;
63969;PMS5003;50156;37.772;-122.432;2022-08-21T15:09:06;5;5;
63969;PMS5003;50156;37.772;-122.432;2022-08-21T15:11:35;3;2;
63969;PMS5003;50156;37.772;-122.432;2022-08-21T15:14:05;5;5;
63969;PMS5003;50156;37.772;-122.432;2022-08-21T15:16:38;3;3;
63969;PMS5003;50156;37.772;-122.432;2022-08-21T15:19:07;8;8;
63969;PMS5003;50156;37.772;-122.432;2022-08-21T15:21:35;5;4;
63969;PMS5003;50156;37.772;-122.432;2022-08-21T15:24:04;5;5;
63969;PMS5003;50156;37.772;-122.432;2022-08-21T15:26:34;3;3;
63969;PMS5003;50156;37.772;-122.432;2022-08-21T15:29:03;4;4;
63969;PMS5003;50156;37.772;-122.432;2022-08-21T15:31:34;7;5;
63969;PMS5003;50156;37.772;-122.432;2022-08-21T15:34:03;5;5;
63969;PMS5003;50156;37.772;-122.432;2022-08-21T15:36:31;4;4;
63969;PMS5003;50156;37.772;-122.432;2022-08-21T15:39:00;6;4;
63969;PMS5003;50156;37.772;-122.432;2022-08-21T15:41:29;7;5;
63969;PMS5003;50156;37.772;-122.432;2022-08-21T15:43:58;11;8;
63969;PMS5003;50156;37.772;-122.432;2022-08-21T15:46:27;6;5;
63969;PMS5003;50156;37.772;-122.432;2022-08-21T15:48:55;5;3;
63969;PMS5003;50156;37.772;-122.432;2022-08-21T15:51:23;3;3;
63969;PMS5003;50156;37.772;-122.432;2022-08-21T15:53:52;6;6;
63969;PMS5003;50156;37.772;-122.432;2022-08-21T15:56:20;4;4;
63969;PMS5003;50156;37.772;-122.432;2022-08-21T15:58:51;8;7;
63969;PMS5003;50156;37.772;-122.432;2022-08-21T16:01:25;6;6;
63969;PMS5003;50156;37.772;-122.432;2022-08-21T16:03:54;4;4;
63969;PMS5003;50156;37.772;-122.432;2022-08-21T16:06:23;9;6;
63969;PMS5003;50156;37.772;-122.432;2022-08-21T16:08:52;7;5;
63969;PMS5003;50156;37.772;-122.432;2022-08-21T16:11:21;5;5;
63969;PMS5003;50156;37.772;-122.432;2022-08-21T16:13:50;7;7;
63969;PMS5003;50156;37.772;-122.432;2022-08-21T16:16:20;5;5;